createdAt,value
2018-07-26T00:00:30.471Z,66.40
2018-07-26T00:02:58.851Z,65.00
2018-07-26T00:05:27.226Z,64.50
2018-07-26T00:07:55.661Z,64.10
2018-07-26T00:10:24.242Z,63.60
2018-07-26T00:12:52.724Z,63.90
2018-07-26T00:15:21.154Z,64.50
2018-07-26T00:17:49.569Z,64.70
2018-07-26T00:20:17.968Z,65.50
2018-07-26T00:22:46.401Z,66.50
2018-07-26T00:27:43.042Z,66.50
2018-07-26T00:30:11.355Z,66.50
2018-07-26T00:32:39.715Z,66.40
2018-07-26T00:35:08.123Z,66.40
2018-07-26T00:37:36.449Z,66.50
2018-07-26T00:40:05.315Z,66.60
2018-07-26T00:42:33.664Z,66.50
2018-07-26T00:45:01.991Z,66.50
2018-07-26T00:47:30.354Z,66.80
2018-07-26T00:49:58.692Z,66.30
2018-07-26T00:52:27.352Z,66.40
2018-07-26T00:54:55.741Z,66.40
2018-07-26T00:57:24.161Z,66.40
2018-07-26T00:59:52.556Z,66.40
2018-07-26T01:02:20.873Z,66.20
2018-07-26T01:04:49.198Z,66.60
2018-07-26T01:07:17.689Z,66.90
2018-07-26T01:09:46.117Z,66.60
2018-07-26T01:12:14.433Z,67.20
2018-07-26T01:17:11.142Z,67.70
2018-07-26T01:19:39.598Z,68.00
2018-07-26T01:22:08.195Z,68.00
2018-07-26T01:24:36.521Z,67.60
2018-07-26T01:27:04.985Z,67.90
2018-07-26T01:29:33.361Z,67.80
2018-07-26T01:32:01.769Z,67.40
2018-07-26T01:34:30.136Z,67.70
2018-07-26T01:36:58.559Z,68.10
2018-07-26T01:41:55.901Z,68.70
2018-07-26T01:44:25.119Z,68.40
2018-07-26T01:49:21.825Z,68.00
2018-07-26T01:51:51.125Z,68.20
2018-07-26T01:54:19.460Z,67.70
2018-07-26T02:01:44.486Z,68.20
2018-07-26T02:04:12.805Z,68.00
2018-07-26T02:06:41.133Z,67.80
2018-07-26T02:09:10.650Z,68.20
2018-07-26T02:11:39.050Z,67.50
2018-07-26T02:14:13.144Z,67.70
2018-07-26T02:16:41.507Z,67.90
2018-07-26T02:21:38.094Z,68.80
2018-07-26T02:24:06.457Z,68.60
2018-07-26T02:26:34.844Z,68.70
2018-07-26T02:29:03.200Z,68.90
2018-07-26T02:31:31.557Z,69.20
2018-07-26T02:36:28.091Z,69.60
2018-07-26T02:38:59.234Z,69.40
2018-07-26T02:43:55.832Z,70.10
2018-07-26T02:46:24.179Z,69.90
2018-07-26T02:48:52.589Z,69.60
2018-07-26T02:51:20.949Z,69.40
2018-07-26T02:53:49.231Z,68.90
2018-07-26T02:56:17.575Z,68.90
2018-07-26T03:01:14.282Z,69.20
2018-07-26T03:03:42.630Z,69.50
2018-07-26T03:06:10.955Z,70.30
2018-07-26T03:08:39.265Z,70.50
2018-07-26T03:13:35.906Z,70.50
2018-07-26T03:16:04.317Z,70.60
2018-07-26T03:18:32.629Z,70.00
2018-07-26T03:21:01.018Z,69.70
2018-07-26T03:23:29.294Z,69.90
2018-07-26T03:25:57.658Z,69.70
2018-07-26T03:28:26.017Z,70.30
2018-07-26T03:30:54.293Z,71.50
2018-07-26T03:33:22.678Z,71.90
2018-07-26T03:35:50.956Z,71.80
2018-07-26T03:38:19.307Z,71.60
2018-07-26T03:40:47.592Z,71.00
2018-07-26T03:43:15.900Z,71.40
2018-07-26T03:45:44.241Z,71.40
2018-07-26T03:48:12.580Z,71.60
2018-07-26T03:53:09.106Z,71.30
2018-07-26T03:55:37.406Z,70.60
2018-07-26T03:58:05.952Z,70.10
2018-07-26T04:00:34.341Z,70.90
2018-07-26T04:03:02.744Z,71.50
2018-07-26T04:05:31.128Z,71.50
2018-07-26T04:07:59.434Z,71.10
2018-07-26T04:10:27.773Z,71.00
2018-07-26T04:12:56.157Z,71.40
2018-07-26T04:15:24.581Z,72.20
2018-07-26T04:17:58.620Z,72.50
2018-07-26T04:20:26.909Z,72.70
2018-07-26T04:22:55.262Z,72.80
2018-07-26T04:25:23.662Z,72.60
2018-07-26T04:27:52.269Z,72.70
2018-07-26T04:30:20.641Z,72.60
2018-07-26T04:32:48.954Z,72.50
2018-07-26T04:37:48.367Z,73.70
2018-07-26T04:40:16.661Z,74.00
2018-07-26T04:42:45.077Z,73.20
2018-07-26T04:47:41.652Z,74.00
2018-07-26T04:50:10.045Z,73.80
2018-07-26T04:52:38.469Z,73.50
2018-07-26T04:55:06.912Z,73.60
2018-07-26T04:57:35.301Z,73.10
2018-07-26T05:00:08.293Z,73.50
2018-07-26T05:02:36.757Z,73.60
2018-07-26T05:05:05.828Z,73.10
2018-07-26T05:07:34.266Z,72.60
2018-07-26T05:10:02.645Z,71.90
2018-07-26T05:12:30.998Z,72.30
2018-07-26T05:14:59.342Z,71.30
2018-07-26T05:17:27.758Z,71.00
2018-07-26T05:19:56.136Z,70.90
2018-07-26T05:24:52.703Z,70.70
2018-07-26T05:27:21.067Z,70.60
2018-07-26T05:29:49.391Z,70.40
2018-07-26T05:32:17.778Z,70.20
2018-07-26T05:34:46.169Z,70.00
2018-07-26T05:37:14.545Z,69.60
2018-07-26T05:39:43.075Z,69.30
2018-07-26T05:42:11.416Z,69.20
2018-07-26T05:44:39.769Z,68.80
2018-07-26T05:47:08.162Z,68.30
2018-07-26T05:49:36.583Z,68.10
2018-07-26T05:54:33.309Z,67.60
2018-07-26T05:57:01.682Z,67.40
2018-07-26T05:59:30.042Z,67.60
2018-07-26T06:01:58.588Z,67.20
2018-07-26T06:04:27.032Z,67.20
2018-07-26T06:06:55.393Z,67.50
2018-07-26T06:09:23.765Z,67.70
2018-07-26T06:11:52.116Z,66.40
2018-07-26T06:14:20.512Z,66.10
2018-07-26T06:16:49.284Z,65.60
2018-07-26T06:19:17.788Z,66.10
2018-07-26T06:21:46.910Z,65.50
2018-07-26T06:24:15.381Z,64.90
2018-07-26T06:26:43.725Z,64.50
2018-07-26T06:29:12.048Z,64.00
2018-07-26T06:34:09.303Z,64.10
2018-07-26T06:36:37.635Z,63.90
2018-07-26T06:39:10.070Z,63.10
2018-07-26T06:41:38.516Z,62.60
2018-07-26T06:44:06.916Z,62.70
2018-07-26T06:49:04.073Z,62.30
2018-07-26T06:51:33.056Z,61.80
2018-07-26T06:54:01.556Z,61.80
2018-07-26T06:58:58.238Z,61.90
2018-07-26T07:01:26.654Z,61.90
2018-07-26T07:03:55.009Z,61.30
2018-07-26T07:06:23.449Z,61.00
2018-07-26T07:08:51.869Z,60.70
2018-07-26T07:11:20.273Z,60.50
2018-07-26T07:13:48.677Z,59.60
2018-07-26T07:16:17.197Z,57.60
2018-07-26T07:18:45.585Z,56.70
2018-07-26T07:21:15.991Z,55.90
2018-07-26T07:23:44.372Z,55.90
2018-07-26T07:26:12.711Z,55.10
2018-07-26T07:28:41.071Z,55.40
2018-07-26T07:31:09.478Z,55.60
2018-07-26T07:33:37.851Z,55.10
2018-07-26T07:36:07.993Z,54.60
2018-07-26T07:38:36.350Z,54.40
2018-07-26T07:41:04.797Z,54.10
2018-07-26T07:43:33.162Z,53.20
2018-07-26T07:46:01.534Z,52.70
2018-07-26T07:48:29.976Z,52.40
2018-07-26T07:50:58.374Z,52.60
2018-07-26T07:53:26.740Z,52.80
2018-07-26T07:55:55.149Z,52.50
2018-07-26T07:58:23.476Z,52.60
2018-07-26T08:00:52.936Z,52.10
2018-07-26T08:03:21.349Z,51.10
2018-07-26T08:10:46.225Z,50.20
2018-07-26T08:13:14.565Z,49.90
2018-07-26T08:15:43.012Z,49.90
2018-07-26T08:18:11.457Z,50.00
2018-07-26T08:20:39.818Z,49.70
2018-07-26T08:23:08.343Z,49.60
2018-07-26T08:25:36.834Z,49.50
2018-07-26T08:28:05.593Z,49.30
2018-07-26T08:30:34.037Z,48.80
2018-07-26T08:33:02.411Z,48.00
2018-07-26T08:35:30.754Z,46.60
2018-07-26T08:37:59.105Z,46.60
2018-07-26T08:40:27.764Z,45.80
2018-07-26T08:42:56.183Z,45.80
2018-07-26T08:45:24.558Z,47.30
2018-07-26T08:47:53.014Z,45.50
2018-07-26T08:50:21.346Z,44.80
2018-07-26T08:55:18.029Z,43.20
2018-07-26T08:57:46.501Z,42.10
2018-07-26T09:00:18.543Z,41.40
2018-07-26T09:02:47.924Z,42.10
2018-07-26T09:05:16.641Z,42.90
2018-07-26T09:07:45.322Z,42.50
2018-07-26T09:10:14.220Z,41.10
2018-07-26T09:12:42.602Z,41.60
2018-07-26T09:15:10.996Z,40.70
2018-07-26T09:17:39.382Z,41.30
2018-07-26T09:20:08.477Z,40.50
2018-07-26T09:22:36.948Z,39.80
2018-07-26T09:25:05.419Z,39.60
2018-07-26T09:27:33.915Z,39.40
2018-07-26T09:30:02.304Z,38.10
2018-07-26T09:32:30.649Z,38.40
2018-07-26T09:34:59.071Z,37.10
2018-07-26T09:37:27.624Z,36.70
2018-07-26T09:39:56.073Z,37.20
2018-07-26T09:42:24.578Z,37.10
2018-07-26T09:44:53.156Z,36.70
2018-07-26T09:47:21.688Z,37.10
2018-07-26T09:49:50.149Z,37.50
2018-07-26T09:52:18.685Z,35.90
2018-07-26T09:54:47.074Z,32.80
2018-07-26T09:57:15.467Z,32.40
2018-07-26T09:59:43.901Z,31.00
2018-07-26T10:02:12.440Z,30.70
2018-07-26T10:04:40.753Z,30.00
2018-07-26T10:09:37.445Z,31.30
2018-07-26T10:12:06.044Z,31.00
2018-07-26T10:14:34.957Z,31.60
2018-07-26T10:17:03.360Z,31.20
2018-07-26T10:19:31.777Z,31.80
2018-07-26T10:22:00.097Z,31.70
2018-07-26T10:26:56.646Z,32.50
2018-07-26T10:31:53.494Z,32.70
2018-07-26T10:34:21.849Z,31.60
2018-07-26T10:36:50.187Z,32.00
2018-07-26T10:39:18.602Z,31.70
2018-07-26T10:41:46.998Z,32.70
2018-07-26T10:44:15.425Z,32.50
2018-07-26T10:46:43.759Z,30.70
2018-07-26T10:49:12.184Z,30.30
2018-07-26T10:51:47.441Z,30.00
2018-07-26T10:54:15.790Z,30.10
2018-07-26T10:56:44.190Z,29.90
2018-07-26T10:59:12.576Z,29.30
2018-07-26T11:01:40.904Z,29.30
2018-07-26T11:04:09.346Z,28.60
2018-07-26T11:06:37.682Z,28.50
2018-07-26T11:09:08.805Z,28.80
2018-07-26T11:11:37.195Z,28.40
2018-07-26T11:14:05.909Z,28.50
2018-07-26T11:16:34.419Z,28.50
2018-07-26T11:19:02.887Z,28.50
2018-07-26T11:21:31.218Z,28.20
2018-07-26T11:23:59.617Z,28.50
2018-07-26T11:26:27.989Z,28.60
2018-07-26T11:28:56.359Z,29.10
2018-07-26T11:31:24.702Z,28.50
2018-07-26T11:36:21.313Z,28.60
2018-07-26T11:38:49.646Z,29.00
2018-07-26T11:41:18.072Z,29.40
2018-07-26T11:43:46.440Z,28.80
2018-07-26T11:46:15.048Z,29.30
2018-07-26T11:48:43.482Z,28.70
2018-07-26T11:51:12.144Z,28.50
2018-07-26T11:53:40.585Z,28.80
2018-07-26T11:56:08.950Z,28.90
2018-07-26T11:58:37.789Z,29.00
2018-07-26T12:01:06.299Z,29.40
2018-07-26T12:03:34.740Z,29.10
2018-07-26T12:06:03.151Z,29.10
2018-07-26T12:08:31.498Z,29.80
2018-07-26T12:10:59.966Z,29.90
2018-07-26T12:13:28.793Z,29.80
2018-07-26T12:15:57.201Z,29.60
2018-07-26T12:18:26.169Z,29.30
2018-07-26T12:20:54.525Z,29.10
2018-07-26T12:23:22.886Z,29.30
2018-07-26T12:25:51.242Z,29.00
2018-07-26T12:28:19.661Z,29.00
2018-07-26T12:30:48.344Z,28.80
2018-07-26T12:33:16.708Z,28.70
2018-07-26T12:35:45.291Z,28.70
2018-07-26T12:38:13.747Z,29.10
2018-07-26T12:43:10.361Z,28.90
2018-07-26T12:45:38.732Z,28.40
2018-07-26T12:48:07.140Z,27.80
2018-07-26T12:50:35.536Z,27.90
2018-07-26T12:53:03.948Z,28.20
2018-07-26T12:55:32.266Z,28.60
2018-07-26T13:00:29.066Z,26.70
2018-07-26T13:02:57.465Z,26.70
2018-07-26T13:05:25.801Z,26.90
2018-07-26T13:10:22.393Z,27.10
2018-07-26T13:12:50.735Z,27.20
2018-07-26T13:17:47.300Z,26.40
2018-07-26T13:20:15.789Z,26.80
2018-07-26T13:22:44.120Z,26.80
2018-07-26T13:25:12.498Z,27.30
2018-07-26T13:27:40.865Z,27.00
2018-07-26T13:30:09.318Z,27.20
2018-07-26T13:32:37.677Z,26.80
2018-07-26T13:35:06.023Z,26.80
2018-07-26T13:37:34.428Z,26.70
2018-07-26T13:40:03.006Z,26.70
2018-07-26T13:42:31.470Z,27.30
2018-07-26T13:44:59.852Z,27.10
2018-07-26T13:47:28.236Z,27.30
2018-07-26T13:49:56.613Z,26.80
2018-07-26T13:52:25.021Z,26.00
2018-07-26T13:54:53.396Z,25.90
2018-07-26T13:57:21.759Z,25.70
2018-07-26T13:59:50.229Z,26.20
2018-07-26T14:02:18.634Z,25.70
2018-07-26T14:04:46.969Z,25.20
2018-07-26T14:07:15.305Z,25.30
2018-07-26T14:09:43.754Z,26.00
2018-07-26T14:12:12.190Z,25.40
2018-07-26T14:17:15.486Z,24.90
2018-07-26T14:22:12.177Z,24.90
2018-07-26T14:24:40.510Z,24.20
2018-07-26T14:27:08.971Z,24.80
2018-07-26T14:29:37.733Z,24.10
2018-07-26T14:32:06.117Z,23.70
2018-07-26T14:34:34.474Z,24.00
2018-07-26T14:37:02.942Z,23.50
2018-07-26T14:39:31.288Z,24.00
2018-07-26T14:41:59.662Z,24.20
2018-07-26T14:44:27.985Z,24.00
2018-07-26T14:46:56.358Z,25.00
2018-07-26T14:49:24.771Z,25.10
2018-07-26T14:51:53.206Z,24.50
2018-07-26T14:56:49.848Z,23.70
2018-07-26T14:59:18.293Z,23.80
2018-07-26T15:01:46.617Z,22.80
2018-07-26T15:04:15.080Z,23.80
2018-07-26T15:06:43.357Z,23.80
2018-07-26T15:09:11.777Z,23.20
2018-07-26T15:11:40.163Z,23.30
2018-07-26T15:14:08.553Z,23.90
2018-07-26T15:16:37.142Z,23.60
2018-07-26T15:19:06.010Z,23.10
2018-07-26T15:21:34.420Z,23.40
2018-07-26T15:24:02.821Z,23.10
2018-07-26T15:26:31.168Z,22.60
2018-07-26T15:28:59.667Z,22.70
2018-07-26T15:33:56.477Z,21.70
2018-07-26T15:36:25.283Z,21.60
2018-07-26T15:38:53.739Z,22.30
2018-07-26T15:41:22.192Z,23.20
2018-07-26T15:43:50.556Z,23.10
2018-07-26T15:46:18.985Z,22.20
2018-07-26T15:48:47.338Z,22.90
2018-07-26T15:51:15.768Z,22.90
2018-07-26T15:53:44.228Z,22.60
2018-07-26T15:56:12.837Z,23.20
2018-07-26T15:58:41.414Z,22.80
2018-07-26T16:01:09.943Z,24.30
2018-07-26T16:03:38.447Z,24.10
2018-07-26T16:06:07.159Z,24.10
2018-07-26T16:08:35.752Z,24.30
2018-07-26T16:11:04.237Z,24.70
2018-07-26T16:13:32.626Z,24.30
2018-07-26T16:16:01.026Z,24.40
2018-07-26T16:20:57.801Z,22.20
2018-07-26T16:23:26.452Z,23.30
2018-07-26T16:25:54.990Z,23.90
2018-07-26T16:28:23.442Z,24.70
2018-07-26T16:30:52.554Z,24.10
2018-07-26T16:33:21.557Z,24.00
2018-07-26T16:35:49.978Z,24.30
2018-07-26T16:38:18.317Z,24.60
2018-07-26T16:40:46.735Z,25.40
2018-07-26T16:43:15.109Z,24.90
2018-07-26T16:45:43.615Z,24.10
2018-07-26T16:48:12.597Z,24.30
2018-07-26T16:50:41.055Z,25.00
2018-07-26T16:53:09.637Z,25.30
2018-07-26T16:55:39.589Z,25.30
2018-07-26T16:58:08.174Z,25.30
2018-07-26T17:00:36.665Z,25.30
2018-07-26T17:03:05.057Z,25.30
2018-07-26T17:10:30.125Z,26.10
2018-07-26T17:12:58.922Z,25.70
2018-07-26T17:15:27.410Z,26.10
2018-07-26T17:17:55.940Z,26.50
2018-07-26T17:20:24.576Z,26.70
2018-07-26T17:22:53.030Z,29.50
2018-07-26T17:25:25.278Z,28.30
2018-07-26T17:27:55.124Z,26.80
2018-07-26T17:30:23.565Z,26.80
2018-07-26T17:35:20.218Z,26.20
2018-07-26T17:37:48.685Z,26.50
2018-07-26T17:42:45.489Z,26.00
2018-07-26T17:45:13.986Z,26.20
2018-07-26T17:47:42.506Z,26.10
2018-07-26T17:50:11.390Z,26.20
2018-07-26T17:55:09.077Z,25.90
2018-07-26T17:57:38.059Z,26.30
2018-07-26T18:02:37.305Z,27.40
2018-07-26T18:05:05.999Z,26.20
2018-07-26T18:07:34.540Z,26.50
2018-07-26T18:10:03.010Z,26.20
2018-07-26T18:12:31.392Z,26.30
2018-07-26T18:14:59.815Z,26.30
2018-07-26T18:17:28.212Z,26.20
2018-07-26T18:19:56.662Z,26.10
2018-07-26T18:22:25.035Z,26.40
2018-07-26T18:24:53.911Z,25.70
2018-07-26T18:29:50.688Z,26.30
2018-07-26T18:32:19.075Z,26.70
2018-07-26T18:34:47.487Z,26.50
2018-07-26T18:37:16.195Z,26.50
2018-07-26T18:42:12.916Z,26.80
2018-07-26T18:44:41.339Z,26.90
2018-07-26T18:47:10.712Z,26.60
2018-07-26T18:49:39.164Z,26.60
2018-07-26T18:52:07.594Z,27.20
2018-07-26T18:57:04.356Z,27.60
2018-07-26T18:59:33.540Z,27.90
2018-07-26T19:04:30.333Z,28.60
2018-07-26T19:06:59.350Z,28.60
2018-07-26T19:09:27.803Z,28.50
2018-07-26T19:11:56.306Z,28.90
2018-07-26T19:14:24.862Z,28.80
2018-07-26T19:16:53.445Z,29.10
2018-07-26T19:19:21.856Z,29.20
2018-07-26T19:21:50.374Z,29.40
2018-07-26T19:24:18.852Z,29.80
2018-07-26T19:26:47.340Z,30.20
2018-07-26T19:29:15.920Z,29.60
2018-07-26T19:36:40.985Z,30.40
2018-07-26T19:39:11.533Z,30.30
2018-07-26T19:41:40.365Z,29.70
2018-07-26T19:44:08.922Z,30.00
2018-07-26T19:46:38.030Z,30.00
2018-07-26T19:49:06.507Z,30.90
2018-07-26T19:51:34.977Z,30.50
2018-07-26T19:54:03.533Z,30.30
2018-07-26T19:56:32.060Z,30.70
2018-07-26T19:59:00.470Z,31.50
2018-07-26T20:01:28.970Z,32.80
2018-07-26T20:03:57.775Z,33.80
2018-07-26T20:06:26.221Z,34.30
2018-07-26T20:08:54.722Z,34.60
2018-07-26T20:11:23.159Z,34.70
2018-07-26T20:13:51.748Z,34.90
2018-07-26T20:16:20.211Z,35.10
2018-07-26T20:18:49.398Z,35.50
2018-07-26T20:23:46.305Z,35.80
2018-07-26T20:26:14.730Z,36.00
2018-07-26T20:31:11.626Z,36.60
2018-07-26T20:33:40.152Z,36.90
2018-07-26T20:36:08.797Z,37.10
2018-07-26T20:38:37.303Z,37.30
2018-07-26T20:41:05.775Z,37.80
2018-07-26T20:43:34.159Z,37.90
2018-07-26T20:46:02.517Z,38.30
2018-07-26T20:48:30.969Z,38.80
2018-07-26T20:53:28.464Z,39.30
2018-07-26T20:55:56.836Z,39.10
2018-07-26T20:58:25.241Z,39.60
2018-07-26T21:00:53.709Z,39.60
2018-07-26T21:03:22.107Z,39.00
2018-07-26T21:05:50.432Z,39.20
2018-07-26T21:08:18.862Z,39.10
2018-07-26T21:10:47.208Z,39.10
2018-07-26T21:20:40.468Z,39.80
2018-07-26T21:25:37.142Z,39.70
2018-07-26T21:28:05.595Z,39.60
2018-07-26T21:30:33.974Z,40.10
2018-07-26T21:35:30.704Z,40.20
2018-07-26T21:37:59.097Z,40.80
2018-07-26T21:40:27.472Z,40.80
2018-07-26T21:42:55.848Z,40.60
2018-07-26T21:45:24.268Z,41.30
2018-07-26T21:47:52.581Z,41.50
2018-07-26T21:50:20.888Z,41.80
2018-07-26T21:55:17.615Z,42.40
2018-07-26T21:57:46.027Z,42.40
2018-07-26T22:00:14.420Z,43.20
2018-07-26T22:05:11.101Z,43.60
2018-07-26T22:07:40.170Z,43.40
2018-07-26T22:10:08.563Z,43.80
2018-07-26T22:12:36.937Z,43.90
2018-07-26T22:15:05.906Z,44.30
2018-07-26T22:17:35.405Z,44.30
2018-07-26T22:22:32.262Z,44.20
2018-07-26T22:25:00.575Z,44.30
2018-07-26T22:27:28.889Z,44.40
2018-07-26T22:29:57.212Z,44.30
2018-07-26T22:32:25.545Z,44.30
2018-07-26T22:34:53.873Z,44.90
2018-07-26T22:37:22.201Z,44.90
2018-07-26T22:39:50.667Z,45.20
2018-07-26T22:42:19.050Z,45.80
2018-07-26T22:44:47.509Z,45.80
2018-07-26T22:47:17.870Z,45.70
2018-07-26T22:49:46.218Z,46.00
2018-07-26T22:52:14.612Z,46.40
2018-07-26T22:54:42.902Z,46.00
2018-07-26T22:59:39.460Z,46.60
2018-07-26T23:02:07.846Z,46.20
2018-07-26T23:04:36.185Z,46.60
2018-07-26T23:07:04.650Z,46.70
2018-07-26T23:09:32.971Z,47.10
2018-07-26T23:12:01.370Z,46.60
2018-07-26T23:14:29.701Z,47.40
2018-07-26T23:16:58.065Z,47.10
2018-07-26T23:19:27.433Z,46.90
2018-07-26T23:21:55.826Z,46.60
2018-07-26T23:24:24.172Z,46.80
2018-07-26T23:26:52.570Z,46.90
2018-07-26T23:29:20.864Z,47.20
2018-07-26T23:31:49.192Z,47.20
2018-07-26T23:34:17.609Z,47.00
2018-07-26T23:36:46.032Z,47.80
2018-07-26T23:39:14.396Z,47.60
2018-07-26T23:41:42.823Z,47.60
2018-07-26T23:44:11.284Z,48.20
2018-07-26T23:46:39.696Z,48.10
2018-07-26T23:49:08.169Z,48.40
2018-07-26T23:51:36.572Z,48.30
2018-07-26T23:54:04.932Z,48.50
2018-07-26T23:56:33.265Z,48.50
